createdAt,value
2022-09-12T00:01:42.338Z,100000.47
2022-09-12T00:04:30.266Z,100000.50
2022-09-12T00:07:19.541Z,99999.31
2022-09-12T00:10:08.087Z,99993.81
2022-09-12T00:12:56.083Z,99994.56
2022-09-12T00:15:45.370Z,99993.84
2022-09-12T00:18:34.518Z,99993.84
2022-09-12T00:21:23.415Z,99988.72
2022-09-12T00:24:12.783Z,99983.63
2022-09-12T00:27:00.663Z,99984.03
2022-09-12T00:29:48.577Z,99988.78
2022-09-12T00:32:36.536Z,99985.63
2022-09-12T00:35:24.424Z,99984.47
2022-09-12T00:38:12.586Z,99986.44
2022-09-12T00:41:01.819Z,99997.09
2022-09-12T00:43:51.020Z,99995.13
2022-09-12T00:46:43.318Z,99993.16
2022-09-12T00:49:34.658Z,99978.56
2022-09-12T00:52:27.425Z,99980.53
2022-09-12T00:55:19.400Z,99980.91
2022-09-12T00:58:13.586Z,99980.94
2022-09-12T01:01:01.794Z,99983.31
2022-09-12T01:03:49.811Z,99979.34
2022-09-12T01:06:41.743Z,99986.88
2022-09-12T01:09:29.634Z,99986.88
2022-09-12T01:12:18.474Z,99982.50
2022-09-12T01:15:08.704Z,99981.31
2022-09-12T01:18:10.920Z,99977.38
2022-09-12T01:21:11.136Z,99963.97
2022-09-12T01:24:26.608Z,99971.44
2022-09-12T01:27:37.755Z,99960.78
2022-09-12T01:30:41.257Z,99968.31
2022-09-12T01:33:55.644Z,99966.69
2022-09-12T01:36:52.824Z,99960.38
2022-09-12T01:39:51.030Z,99959.19
2022-09-12T01:42:48.203Z,99954.47
2022-09-12T01:45:42.192Z,99958.81
2022-09-12T01:48:35.735Z,99954.88
2022-09-12T01:51:28.040Z,99957.66
2022-09-12T01:54:21.644Z,99951.34
2022-09-12T01:57:16.691Z,99949.34
2022-09-12T02:00:10.182Z,99956.84
2022-09-12T02:03:10.463Z,99943.84
2022-09-12T02:06:04.443Z,99948.94
2022-09-12T02:08:54.497Z,99947.34
2022-09-12T02:11:45.658Z,99941.81
2022-09-12T02:14:38.777Z,99933.97
2022-09-12T02:17:27.698Z,99938.31
2022-09-12T02:20:37.423Z,99925.31
2022-09-12T02:23:31.913Z,99937.50
2022-09-12T02:26:22.328Z,99931.59
2022-09-12T02:29:12.301Z,99928.44
2022-09-12T02:32:05.804Z,99943.81
2022-09-12T02:35:00.589Z,99935.13
2022-09-12T02:37:58.815Z,99935.50
2022-09-12T02:40:46.827Z,99934.75
2022-09-12T02:43:34.795Z,99928.81
2022-09-12T02:46:27.090Z,99930.41
2022-09-12T02:49:16.783Z,99887.81
2022-09-12T02:52:05.285Z,99930.41
2022-09-12T02:54:56.064Z,99924.50
2022-09-12T02:57:44.102Z,99932.38
2022-09-12T03:00:38.706Z,99927.63
2022-09-12T03:03:43.270Z,99926.44
2022-09-12T03:06:36.652Z,99921.69
2022-09-12T03:09:35.716Z,99917.31
2022-09-12T03:12:40.124Z,99915.78
2022-09-12T03:15:41.954Z,99913.81
2022-09-12T03:18:41.502Z,99919.31
2022-09-12T03:21:34.095Z,99916.16
2022-09-12T03:24:27.706Z,99919.69
2022-09-12T03:27:20.757Z,99922.47
2022-09-12T03:30:12.572Z,99915.38
2022-09-12T03:33:00.449Z,99913.81
2022-09-12T03:35:49.317Z,99916.94
2022-09-12T03:38:37.197Z,99903.50
2022-09-12T03:41:25.165Z,99916.94
2022-09-12T03:44:13.092Z,99918.50
2022-09-12T03:47:02.312Z,99915.38
2022-09-12T03:49:50.222Z,99912.25
2022-09-12T03:52:38.439Z,99902.00
2022-09-12T03:55:26.605Z,99905.56
2022-09-12T03:58:14.705Z,99905.16
2022-09-12T04:01:07.606Z,99910.28
2022-09-12T04:03:56.854Z,99906.31
2022-09-12T04:06:44.738Z,99906.72
2022-09-12T04:09:32.712Z,99905.53
2022-09-12T04:12:20.701Z,99906.28
2022-09-12T04:15:10.282Z,99909.06
2022-09-12T04:18:02.440Z,99906.28
2022-09-12T04:20:54.378Z,99894.81
2022-09-12T04:23:42.882Z,99918.50
2022-09-12T04:26:31.711Z,99914.91
2022-09-12T04:29:19.675Z,99910.19
2022-09-12T04:32:07.593Z,99918.13
2022-09-12T04:34:55.476Z,99914.16
2022-09-12T04:37:44.715Z,99918.13
2022-09-12T04:40:33.235Z,99919.28
2022-09-12T04:43:21.127Z,99917.28
2022-09-12T04:46:10.072Z,99912.97
2022-09-12T04:48:58.471Z,99903.50
2022-09-12T04:51:46.533Z,99917.66
2022-09-12T04:54:35.789Z,99914.91
2022-09-12T04:57:23.661Z,99918.03
2022-09-12T05:00:14.455Z,99914.88
2022-09-12T05:03:02.822Z,99917.63
2022-09-12T05:05:54.538Z,99920.78
2022-09-12T05:08:44.577Z,99906.59
2022-09-12T05:12:02.638Z,99873.81
2022-09-12T05:14:44.192Z,99914.88
2022-09-12T05:17:32.100Z,99914.81
2022-09-12T05:20:19.968Z,99912.13
2022-09-12T05:23:07.875Z,99913.28
2022-09-12T05:25:58.518Z,99916.84
2022-09-12T05:28:48.473Z,99908.97
2022-09-12T05:31:37.042Z,99913.69
2022-09-12T05:34:25.125Z,99916.06
2022-09-12T05:37:13.019Z,99904.25
2022-09-12T05:40:03.293Z,99906.22
2022-09-12T05:42:51.251Z,99906.22
2022-09-12T05:45:41.458Z,99912.13
2022-09-12T05:48:29.429Z,99908.63
2022-09-12T05:51:19.212Z,99911.38
2022-09-12T05:54:08.959Z,99911.41
2022-09-12T05:56:56.902Z,99911.03
2022-09-12T05:59:45.253Z,99919.34
2022-09-12T06:02:34.532Z,99912.66
2022-09-12T06:05:22.764Z,99912.25
2022-09-12T06:08:11.157Z,99905.97
2022-09-12T06:11:03.356Z,99912.69
2022-09-12T06:13:51.334Z,99903.19
2022-09-12T06:16:40.039Z,99911.84
2022-09-12T06:19:29.317Z,99914.56
2022-09-12T06:22:17.935Z,99908.97
2022-09-12T06:25:06.536Z,99906.88
2022-09-12T06:27:54.395Z,99908.38
2022-09-12T06:30:42.987Z,99902.28
2022-09-12T06:33:31.561Z,99903.00
2022-09-12T06:36:22.631Z,99902.06
2022-09-12T06:39:13.077Z,99886.09
2022-09-12T06:42:00.997Z,99889.41
2022-09-12T06:44:55.442Z,99899.19
2022-09-12T06:47:43.376Z,99897.47
2022-09-12T06:50:31.280Z,99888.13
2022-09-12T06:53:20.502Z,99892.81
2022-09-12T06:56:11.614Z,99873.41
2022-09-12T06:59:00.512Z,99903.91
2022-09-12T07:01:48.465Z,99906.16
2022-09-12T07:04:37.069Z,99917.94
2022-09-12T07:07:25.084Z,99924.66
2022-09-12T07:10:15.522Z,99910.81
2022-09-12T07:13:05.893Z,99912.59
2022-09-12T07:15:53.758Z,99917.53
2022-09-12T07:18:41.623Z,99908.25
2022-09-12T07:21:30.439Z,99912.84
2022-09-12T07:24:18.305Z,99913.13
2022-09-12T07:27:07.572Z,99923.47
2022-09-12T07:29:55.866Z,99926.19
2022-09-12T07:32:43.703Z,99919.59
2022-09-12T07:35:34.361Z,99922.91
2022-09-12T07:38:22.360Z,99923.50
2022-09-12T07:41:13.766Z,99899.38
2022-09-12T07:44:03.853Z,99923.19
2022-09-12T07:46:52.227Z,99922.06
2022-09-12T07:49:40.259Z,99920.03
2022-09-12T07:52:28.122Z,99837.97
2022-09-12T07:55:16.481Z,99926.97
2022-09-12T07:58:04.620Z,99926.63
2022-09-12T08:00:53.835Z,99926.69
2022-09-12T08:03:42.876Z,99922.41
2022-09-12T08:06:32.092Z,99915.47
2022-09-12T08:09:19.945Z,99914.97
2022-09-12T08:12:08.210Z,99922.47
2022-09-12T08:14:56.135Z,99921.97
2022-09-12T08:17:45.362Z,99930.78
2022-09-12T08:20:33.253Z,99932.13
2022-09-12T08:23:23.373Z,99927.66
2022-09-12T08:26:12.285Z,99929.81
2022-09-12T08:29:00.386Z,99924.69
2022-09-12T08:31:48.312Z,99919.84
2022-09-12T08:34:37.511Z,99917.44
2022-09-12T08:37:25.393Z,99886.00
2022-09-12T08:40:18.812Z,99916.91
2022-09-12T08:43:19.177Z,99917.44
2022-09-12T08:46:11.948Z,99913.41
2022-09-12T08:49:03.738Z,99907.97
2022-09-12T08:51:53.941Z,99912.97
2022-09-12T08:54:44.600Z,99919.91
2022-09-12T08:57:32.744Z,99915.38
2022-09-12T09:00:21.546Z,99912.44
2022-09-12T09:03:26.843Z,99919.59
2022-09-12T09:06:28.051Z,99914.22
2022-09-12T09:09:26.049Z,99920.22
2022-09-12T09:12:23.212Z,99932.63
2022-09-12T09:15:35.681Z,99922.63
2022-09-12T09:18:25.875Z,99918.09
2022-09-12T09:21:21.768Z,99924.16
2022-09-12T09:27:14.276Z,99916.56
2022-09-12T09:30:16.660Z,99914.84
2022-09-12T09:33:10.793Z,99922.16
2022-09-12T09:36:05.388Z,99924.56
2022-09-12T09:39:03.053Z,99929.63
2022-09-12T09:42:01.514Z,99913.66
2022-09-12T09:44:54.822Z,99920.09
2022-09-12T09:47:43.078Z,99923.19
2022-09-12T09:50:30.943Z,99922.50
2022-09-12T09:53:30.492Z,99919.16
2022-09-12T09:56:28.884Z,99914.63
2022-09-12T09:59:19.642Z,99832.81
2022-09-12T10:02:24.301Z,99893.41
2022-09-12T10:05:18.067Z,99903.09
2022-09-12T10:08:08.284Z,99903.44
2022-09-12T10:10:58.932Z,99896.75
2022-09-12T10:13:56.757Z,99899.72
2022-09-12T10:16:52.652Z,99897.84
2022-09-12T10:19:41.893Z,99893.59
2022-09-12T10:22:30.423Z,99888.81
2022-09-12T10:25:20.273Z,99886.34
2022-09-12T10:28:23.989Z,99900.53
2022-09-12T10:31:16.609Z,99891.16
2022-09-12T10:34:05.636Z,99883.94
2022-09-12T10:37:01.375Z,99885.06
2022-09-12T10:39:53.703Z,99892.22
2022-09-12T10:42:53.760Z,99881.56
2022-09-12T10:45:41.841Z,99878.44
2022-09-12T10:48:32.319Z,99879.66
2022-09-12T10:51:28.722Z,99878.97
2022-09-12T10:54:20.890Z,99869.03
2022-09-12T10:57:53.914Z,99869.47
2022-09-12T11:00:48.407Z,99863.84
2022-09-12T11:03:52.317Z,99864.31
2022-09-12T11:06:49.320Z,99855.97
2022-09-12T11:09:47.557Z,99856.66
2022-09-12T11:12:44.538Z,99839.13
2022-09-12T11:15:57.703Z,99843.44
2022-09-12T11:19:04.867Z,99834.31
2022-09-12T11:22:14.674Z,99833.56
2022-09-12T11:25:21.056Z,99829.53
2022-09-12T11:28:25.020Z,99832.78
2022-09-12T11:31:34.300Z,99834.47
2022-09-12T11:34:30.467Z,99819.94
2022-09-12T11:37:35.495Z,99827.72
2022-09-12T11:40:31.052Z,99827.63
2022-09-12T11:43:29.674Z,99828.19
2022-09-12T11:46:22.392Z,99827.63
2022-09-12T11:49:33.605Z,99828.19
2022-09-12T11:52:24.930Z,99818.28
2022-09-12T11:55:18.759Z,99824.28
2022-09-12T11:58:09.828Z,99812.59
2022-09-12T12:01:04.150Z,99810.94
2022-09-12T12:03:52.580Z,99805.75
2022-09-12T12:06:50.254Z,99806.94
2022-09-12T12:09:47.292Z,99805.19
2022-09-12T12:12:35.327Z,99794.91
2022-09-12T12:15:26.509Z,99802.50
2022-09-12T12:18:19.352Z,99791.50
2022-09-12T12:21:39.965Z,99798.88
2022-09-12T12:24:29.026Z,99779.47
2022-09-12T12:27:27.036Z,99791.50
2022-09-12T12:31:03.492Z,99773.31
2022-09-12T12:34:29.694Z,99779.44
2022-09-12T12:37:53.039Z,99770.41
2022-09-12T12:40:40.908Z,99759.03
2022-09-12T12:43:32.385Z,99769.13
2022-09-12T12:46:24.193Z,99752.66
2022-09-12T12:49:21.062Z,99751.44
2022-09-12T12:52:16.917Z,99748.91
2022-09-12T12:55:05.887Z,99741.34
2022-09-12T12:57:55.831Z,99736.69
2022-09-12T13:00:47.068Z,99727.50
2022-09-12T13:03:35.534Z,99732.28
2022-09-12T13:06:32.430Z,99730.56
2022-09-12T13:09:25.948Z,99739.78
2022-09-12T13:12:20.771Z,99740.31
2022-09-12T13:15:47.482Z,99736.25
2022-09-12T13:18:43.797Z,99734.13
2022-09-12T13:21:31.726Z,99722.06
2022-09-12T13:24:25.755Z,99724.63
2022-09-12T13:27:18.783Z,99713.56
2022-09-12T13:30:09.013Z,99705.31
2022-09-12T13:32:59.918Z,99704.59
2022-09-12T13:36:00.217Z,99698.97
2022-09-12T13:38:58.812Z,99707.16
2022-09-12T13:42:26.706Z,99706.22
2022-09-12T13:45:20.905Z,99705.66
2022-09-12T13:48:16.686Z,99705.59
2022-09-12T13:51:05.935Z,99693.66
2022-09-12T13:53:57.342Z,99691.50
2022-09-12T13:56:49.349Z,99691.34
2022-09-12T13:59:42.683Z,99688.09
2022-09-12T14:02:31.298Z,99683.81
2022-09-12T14:05:22.460Z,99676.25
2022-09-12T14:08:14.315Z,99674.16
2022-09-12T14:11:09.907Z,99676.97
2022-09-12T14:13:59.179Z,99666.25
2022-09-12T14:16:49.177Z,99663.72
2022-09-12T14:19:37.086Z,99668.66
2022-09-12T14:22:27.418Z,99665.50
2022-09-12T14:25:16.404Z,99653.44
2022-09-12T14:28:04.739Z,99666.69
2022-09-12T14:31:21.977Z,99660.19
2022-09-12T14:34:13.984Z,99660.22
2022-09-12T14:37:07.791Z,99657.13
2022-09-12T14:39:56.152Z,99655.44
2022-09-12T14:42:44.747Z,99653.25
2022-09-12T14:45:33.308Z,99661.22
2022-09-12T14:48:21.246Z,99654.00
2022-09-12T14:51:21.951Z,99641.75
2022-09-12T14:54:36.048Z,99646.00
2022-09-12T14:57:36.580Z,99638.41
2022-09-12T15:00:24.531Z,99631.63
2022-09-12T15:03:25.857Z,99633.53
2022-09-12T15:06:23.892Z,99626.75
2022-09-12T15:09:14.534Z,99614.63
2022-09-12T15:12:02.655Z,99613.78
2022-09-12T15:14:50.576Z,99619.16
2022-09-12T15:17:38.745Z,99611.28
2022-09-12T15:20:26.742Z,99612.66
2022-09-12T15:23:20.962Z,99603.03
2022-09-12T15:26:11.861Z,99600.13
2022-09-12T15:28:59.761Z,99590.34
2022-09-12T15:31:51.834Z,99609.19
2022-09-12T15:34:39.708Z,99596.53
2022-09-12T15:37:27.609Z,99521.41
2022-09-12T15:40:17.783Z,99591.34
2022-09-12T15:43:05.952Z,99588.81
2022-09-12T15:45:53.990Z,99588.50
2022-09-12T15:48:41.933Z,99588.81
2022-09-12T15:51:29.909Z,99592.22
2022-09-12T15:54:19.099Z,99579.28
2022-09-12T15:57:08.393Z,99583.97
2022-09-12T15:59:56.279Z,99585.03
2022-09-12T16:02:44.392Z,99578.94
2022-09-12T16:05:32.729Z,99573.97
2022-09-12T16:08:20.626Z,99585.75
2022-09-12T16:11:13.123Z,99571.25
2022-09-12T16:14:03.688Z,99571.81
2022-09-12T16:16:57.541Z,99573.94
2022-09-12T16:19:45.453Z,99569.78
2022-09-12T16:22:33.387Z,99568.28
2022-09-12T16:25:21.301Z,99558.66
2022-09-12T16:28:09.855Z,99557.03
2022-09-12T16:31:00.178Z,99550.88
2022-09-12T16:33:48.478Z,99558.72
2022-09-12T16:36:36.400Z,99556.41
2022-09-12T16:39:24.253Z,99556.16
2022-09-12T16:42:12.160Z,99564.16
2022-09-12T16:45:00.240Z,99561.56
2022-09-12T16:47:49.457Z,99547.22
2022-09-12T16:50:37.315Z,99561.06
2022-09-12T16:56:13.618Z,99567.47
2022-09-12T16:59:01.469Z,99562.88
2022-09-12T17:01:49.389Z,99563.59
2022-09-12T17:04:38.625Z,99558.03
2022-09-12T17:07:26.473Z,99555.81
2022-09-12T17:10:14.400Z,99559.72
2022-09-12T17:13:03.112Z,99542.97
2022-09-12T17:15:51.318Z,99552.50
2022-09-12T17:18:39.349Z,99553.09
2022-09-12T17:21:28.711Z,99546.19
2022-09-12T17:24:17.490Z,99555.25
2022-09-12T17:27:05.831Z,99548.69
2022-09-12T17:29:53.978Z,99547.78
2022-09-12T17:32:41.843Z,99545.34
2022-09-12T17:35:29.875Z,99551.31
2022-09-12T17:38:24.578Z,99538.66
2022-09-12T17:41:15.919Z,99549.66
2022-09-12T17:44:07.214Z,99547.78
2022-09-12T17:46:55.072Z,99486.34
2022-09-12T17:49:42.905Z,99552.00
2022-09-12T17:52:31.529Z,99559.31
2022-09-12T17:55:20.889Z,99474.56
2022-09-12T17:58:09.388Z,99562.31
2022-09-12T18:01:19.375Z,99539.88
2022-09-12T18:04:07.302Z,99559.31
2022-09-12T18:06:57.383Z,99557.50
2022-09-12T18:09:47.653Z,99563.97
2022-09-12T18:12:37.573Z,99568.59
2022-09-12T18:15:26.016Z,99570.34
2022-09-12T18:18:15.113Z,99548.59
2022-09-12T18:21:03.869Z,99568.84
2022-09-12T18:23:51.692Z,99570.56
2022-09-12T18:26:39.761Z,99564.00
2022-09-12T18:29:29.017Z,99565.88
2022-09-12T18:32:16.876Z,99559.69
2022-09-12T18:35:05.810Z,99567.03
2022-09-12T18:37:53.743Z,99558.91
2022-09-12T18:40:41.611Z,99559.47
2022-09-12T18:43:29.461Z,99558.81
2022-09-12T18:46:20.522Z,99555.75
2022-09-12T18:49:09.300Z,99563.22
2022-09-12T18:51:57.153Z,99567.91
2022-09-12T18:54:45.012Z,99563.59
2022-09-12T18:57:35.017Z,99572.63
2022-09-12T19:00:23.028Z,99560.38
2022-09-12T19:03:12.250Z,99553.63
2022-09-12T19:06:00.165Z,99555.31
2022-09-12T19:08:48.884Z,99557.38
2022-09-12T19:11:38.367Z,99559.84
2022-09-12T19:14:27.363Z,99557.94
2022-09-12T19:17:15.284Z,99559.50
2022-09-12T19:20:05.713Z,99557.06
2022-09-12T19:22:53.598Z,99551.22
2022-09-12T19:25:41.585Z,99548.53
2022-09-12T19:28:29.525Z,99557.00
2022-09-12T19:31:20.198Z,99515.22
2022-09-12T19:34:08.708Z,99560.25
2022-09-12T19:36:59.323Z,99558.59
2022-09-12T19:39:47.254Z,99567.22
2022-09-12T19:42:35.198Z,99560.81
2022-09-12T19:45:23.264Z,99555.19
2022-09-12T19:48:11.156Z,99552.75
2022-09-12T19:51:00.126Z,99546.25
2022-09-12T19:53:50.125Z,99542.69
2022-09-12T19:56:38.191Z,99541.66
2022-09-12T19:59:26.139Z,99541.78
2022-09-12T20:02:14.062Z,99531.50
2022-09-12T20:05:02.297Z,99528.72
2022-09-12T20:07:50.157Z,99532.38
2022-09-12T20:10:39.363Z,99523.75
2022-09-12T20:13:27.656Z,99521.19
2022-09-12T20:16:21.643Z,99522.69
2022-09-12T20:19:10.605Z,99523.16
2022-09-12T20:21:58.700Z,99514.84
2022-09-12T20:24:46.541Z,99511.53
2022-09-12T20:27:35.755Z,99516.03
2022-09-12T20:30:23.684Z,99515.28
2022-09-12T20:33:11.549Z,99509.78
2022-09-12T20:36:07.334Z,99508.41
2022-09-12T20:38:57.961Z,99443.69
2022-09-12T20:41:46.541Z,99513.47
2022-09-12T20:44:35.773Z,99515.91
2022-09-12T20:47:23.631Z,99506.69
2022-09-12T20:50:11.605Z,99492.97
2022-09-12T20:53:01.179Z,99494.53
2022-09-12T20:55:52.570Z,99473.50
2022-09-12T20:58:43.805Z,99503.72
2022-09-12T21:01:34.185Z,99496.59
2022-09-12T21:04:23.706Z,99482.00
2022-09-12T21:07:11.693Z,99478.81
2022-09-12T21:09:59.557Z,99471.25
2022-09-12T21:12:47.434Z,99477.34
2022-09-12T21:15:35.288Z,99462.75
2022-09-12T21:18:24.479Z,99462.81
2022-09-12T21:21:13.784Z,99454.84
2022-09-12T21:24:03.630Z,99453.19
2022-09-12T21:26:51.498Z,99458.66
2022-09-12T21:29:39.462Z,99457.44
2022-09-12T21:32:32.417Z,99459.38
2022-09-12T21:35:21.891Z,99457.78
2022-09-12T21:38:09.728Z,99465.28
2022-09-12T21:41:04.100Z,99462.56
2022-09-12T21:43:51.998Z,99461.88
2022-09-12T21:46:39.949Z,99463.81
2022-09-12T21:49:28.131Z,99459.28
2022-09-12T21:52:17.354Z,99463.56
2022-09-12T21:55:07.051Z,99464.72
2022-09-12T21:57:55.017Z,99458.16
2022-09-12T22:00:43.713Z,99463.03
2022-09-12T22:03:32.659Z,99460.09
2022-09-12T22:06:22.541Z,99457.63
2022-09-12T22:09:12.029Z,99457.63
2022-09-12T22:11:59.901Z,99451.94
2022-09-12T22:14:48.232Z,99454.03
2022-09-12T22:17:36.120Z,99458.31
2022-09-12T22:20:24.053Z,99461.91
2022-09-12T22:23:30.546Z,99458.28
2022-09-12T22:26:20.367Z,99461.34
2022-09-12T22:29:09.885Z,99448.66
2022-09-12T22:31:57.809Z,99454.66
2022-09-12T22:34:45.780Z,99448.75
2022-09-12T22:37:33.631Z,99456.28
2022-09-12T22:40:21.591Z,99451.59
2022-09-12T22:43:11.409Z,99448.09
2022-09-12T22:45:59.526Z,99451.75
2022-09-12T22:48:47.684Z,99451.13
2022-09-12T22:51:35.884Z,99441.53
2022-09-12T22:54:23.733Z,99438.81
2022-09-12T22:57:11.983Z,99440.38
2022-09-12T23:00:01.198Z,99425.53
2022-09-12T23:02:49.064Z,99434.06
2022-09-12T23:05:37.835Z,99422.66
2022-09-12T23:08:29.329Z,99428.19
2022-09-12T23:11:19.076Z,99423.22
2022-09-12T23:14:07.158Z,99419.38
2022-09-12T23:16:56.473Z,99413.59
2022-09-12T23:19:44.538Z,99417.28
2022-09-12T23:22:32.646Z,99420.53
2022-09-12T23:25:23.470Z,99423.09
2022-09-12T23:28:14.652Z,99411.69
2022-09-12T23:31:03.112Z,99414.66
2022-09-12T23:33:53.303Z,99418.25
2022-09-12T23:36:41.232Z,99416.84
2022-09-12T23:39:29.141Z,99422.47
2022-09-12T23:42:17.871Z,99422.97
2022-09-12T23:45:06.271Z,99415.56
2022-09-12T23:47:54.137Z,99424.31
2022-09-12T23:50:45.981Z,99431.56
2022-09-12T23:53:35.551Z,99430.50
2022-09-12T23:56:23.438Z,99442.00
2022-09-12T23:59:11.285Z,99440.91
